Time;durP1;ratioP1;P1;durP2;ratioP2;P2;SDS_P1;SDS_P2;PMS_P1;PMS_P2;Temp;Humidity;BMP_temperature;BMP_pressure;BME280_temperature;BME280_humidity;BME280_pressure;Samples;Min_cycle;Max_cycle;Signal;HPM_P1;HPM_P2
2023/09/15 00:02:18;;;;;;;4.20;2.33;;;;;;;17.81;63.49;100242.63;4939680;28;20475;-85
2023/09/15 00:04:46;;;;;;;4.53;2.72;;;;;;;17.82;63.35;100240.78;4945780;28;20137;-85
2023/09/15 00:07:14;;;;;;;5.88;2.17;;;;;;;17.80;63.21;100240.94;4951833;28;20130;-85
2023/09/15 00:09:41;;;;;;;5.50;2.33;;;;;;;17.78;63.08;100230.34;4944063;28;20059;-86
2023/09/15 00:12:09;;;;;;;5.00;2.42;;;;;;;17.73;63.25;100238.09;4956970;28;20130;-85
2023/09/15 00:14:35;;;;;;;4.72;2.50;;;;;;;17.75;63.20;100237.91;4938247;28;20051;-85
2023/09/15 00:17:03;;;;;;;7.03;3.00;;;;;;;17.76;63.25;100232.38;4940751;28;20105;-85
2023/09/15 00:19:30;;;;;;;5.82;2.70;;;;;;;17.76;63.18;100239.59;4952604;28;20039;-85
2023/09/15 00:21:57;;;;;;;8.52;2.72;;;;;;;17.74;63.27;100238.94;4946845;28;20058;-86
2023/09/15 00:24:25;;;;;;;3.97;3.28;;;;;;;17.74;63.08;100236.25;4954662;28;20165;-85
2023/09/15 00:26:52;;;;;;;6.65;2.90;;;;;;;17.72;63.25;100236.41;4958513;28;20051;-85
2023/09/15 00:29:19;;;;;;;7.65;3.47;;;;;;;17.70;63.30;100235.72;4944875;28;20039;-86
2023/09/15 00:31:46;;;;;;;6.10;3.10;;;;;;;17.67;63.41;100240.63;4944497;28;20039;-86
2023/09/15 00:34:14;;;;;;;7.85;4.13;;;;;;;17.64;63.42;100240.97;4937557;28;20501;-85
2023/09/15 00:36:42;;;;;;;5.95;3.70;;;;;;;17.63;63.33;100233.91;4956869;28;20051;-85
2023/09/15 00:39:09;;;;;;;8.00;4.47;;;;;;;17.64;63.33;100246.34;4929028;28;20047;-85
2023/09/15 00:41:36;;;;;;;9.30;4.78;;;;;;;17.60;63.55;100237.78;4954134;28;20050;-86
2023/09/15 00:44:03;;;;;;;6.88;4.50;;;;;;;17.57;63.58;100233.59;4928746;28;20043;-86
2023/09/15 00:46:33;;;;;;;5.93;3.40;;;;;;;17.58;63.22;100245.19;4936985;28;20066;-85
2023/09/15 00:49:00;;;;;;;6.60;3.75;;;;;;;17.57;63.40;100243.50;4929891;28;20047;-85
2023/09/15 00:51:27;;;;;;;5.88;2.92;;;;;;;17.56;63.50;100241.81;4946899;28;20054;-85
2023/09/15 00:53:56;;;;;;;7.95;3.67;;;;;;;17.51;63.63;100228.09;4949541;28;20059;-85
2023/09/15 00:56:24;;;;;;;5.60;3.08;;;;;;;17.54;63.64;100241.16;4945109;28;20062;-86
2023/09/15 00:58:51;;;;;;;8.10;2.90;;;;;;;17.53;63.64;100234.94;4937255;28;20467;-85
2023/09/15 01:01:18;;;;;;;6.05;3.40;;;;;;;17.51;63.66;100238.81;4952090;28;20042;-86
2023/09/15 01:03:46;;;;;;;5.68;3.08;;;;;;;17.48;63.46;100234.63;4936954;28;20101;-86
2023/09/15 01:06:13;;;;;;;10.52;3.47;;;;;;;17.46;63.66;100242.00;4928427;28;20121;-86
2023/09/15 01:08:41;;;;;;;3.88;2.58;;;;;;;17.45;63.56;100234.94;4956364;28;20411;-86
2023/09/15 01:11:08;;;;;;;5.07;2.38;;;;;;;17.44;63.43;100238.66;4933079;28;20640;-87
2023/09/15 01:13:35;;;;;;;3.58;2.20;;;;;;;17.43;63.43;100230.75;4929731;28;20127;-86
2023/09/15 01:16:24;;;;;;;3.65;1.90;;;;;;;17.39;63.38;100229.44;4962018;28;20070;-86
2023/09/15 01:18:58;;;;;;;4.25;1.85;;;;;;;17.35;63.52;100228.91;4942599;28;20494;-86
2023/09/15 01:21:37;;;;;;;4.68;2.42;;;;;;;17.33;63.40;100228.28;4968620;28;20101;-86
2023/09/15 01:24:22;;;;;;;4.72;2.08;;;;;;;17.31;63.47;100235.66;4945111;28;20055;-86
2023/09/15 01:26:52;;;;;;;5.28;2.30;;;;;;;17.29;63.51;100227.75;4945008;28;20047;-85
2023/09/15 01:29:40;;;;;;;4.28;2.50;;;;;;;17.23;63.72;100222.25;4940333;28;20051;-84
2023/09/15 01:32:10;;;;;;;5.53;3.08;;;;;;;17.26;63.48;100220.06;4933812;28;20118;-85
2023/09/15 01:34:37;;;;;;;10.88;3.63;;;;;;;17.25;63.53;100218.38;4938184;28;20043;-86
2023/09/15 01:37:04;;;;;;;5.53;3.53;;;;;;;17.22;63.81;100220.56;4931062;28;20105;-85
2023/09/15 01:39:31;;;;;;;6.53;4.32;;;;;;;17.19;63.81;100224.41;4910352;28;20042;-85
2023/09/15 01:41:59;;;;;;;6.65;3.55;;;;;;;17.23;63.69;100223.09;4957539;28;20047;-85
2023/09/15 01:44:27;;;;;;;10.45;4.00;;;;;;;17.18;63.85;100214.69;4942054;28;20042;-85
2023/09/15 01:46:54;;;;;;;8.80;3.60;;;;;;;17.20;63.98;100223.44;4942986;28;20043;-85
2023/09/15 01:49:21;;;;;;;5.70;3.40;;;;;;;17.16;63.61;100218.56;4933591;28;20125;-85
2023/09/15 01:51:49;;;;;;;8.30;3.60;;;;;;;17.19;63.76;100224.41;4952679;28;20055;-86
2023/09/15 01:54:16;;;;;;;5.10;3.40;;;;;;;17.19;63.95;100219.06;4947783;28;20045;-86
2023/09/15 01:56:43;;;;;;;4.40;3.20;;;;;;;17.16;64.03;100219.41;4933483;28;20062;-85
2023/09/15 01:59:10;;;;;;;6.60;2.97;;;;;;;17.10;64.18;100218.22;4950547;28;20046;-85
2023/09/15 02:01:37;;;;;;;4.25;2.78;;;;;;;17.14;63.87;100224.09;4950992;28;20130;-84
2023/09/15 02:04:04;;;;;;;3.40;2.50;;;;;;;17.16;64.07;100221.25;4947635;28;20059;-86
2023/09/15 02:06:31;;;;;;;6.07;2.45;;;;;;;17.11;63.99;100225.25;4961400;28;20047;-86
2023/09/15 02:08:58;;;;;;;5.95;2.58;;;;;;;17.14;64.14;100222.22;4945932;28;20047;-85
2023/09/15 02:11:25;;;;;;;5.10;2.35;;;;;;;17.11;64.14;100225.25;4932040;28;21713;-85
2023/09/15 02:13:52;;;;;;;3.97;2.42;;;;;;;17.09;64.36;100218.38;4917862;28;20046;-85
2023/09/15 02:16:19;;;;;;;4.30;2.05;;;;;;;17.12;64.29;100220.72;4945251;28;20560;-85
2023/09/15 02:18:47;;;;;;;4.38;2.38;;;;;;;17.03;64.47;100225.28;4931762;28;20055;-85
2023/09/15 02:21:14;;;;;;;4.53;2.40;;;;;;;17.06;64.63;100224.09;4948005;28;20139;-86
2023/09/15 02:23:41;;;;;;;3.88;2.10;;;;;;;17.08;64.43;100220.25;4932823;28;20066;-85
2023/09/15 02:26:08;;;;;;;4.63;2.03;;;;;;;17.12;64.78;100224.28;4957305;28;20477;-86
2023/09/15 02:28:35;;;;;;;3.17;2.10;;;;;;;17.15;64.53;100215.06;4929634;28;20047;-86
2023/09/15 02:31:06;;;;;;;5.40;2.35;;;;;;;17.17;64.62;100217.53;4912458;28;20593;-85
2023/09/15 02:33:34;;;;;;;3.67;1.90;;;;;;;17.12;64.68;100213.53;4942600;28;20392;-85
2023/09/15 02:36:03;;;;;;;11.55;2.30;;;;;;;17.13;64.96;100217.88;4919034;28;20569;-85
2023/09/15 02:38:31;;;;;;;4.50;2.10;;;;;;;17.09;64.62;100216.53;4940207;28;20130;-84
2023/09/15 02:40:58;;;;;;;4.07;2.08;;;;;;;17.10;64.69;100223.59;4930660;28;20514;-86
2023/09/15 02:43:24;;;;;;;3.03;1.77;;;;;;;17.11;64.63;100219.06;4934412;28;20079;-85
2023/09/15 02:45:51;;;;;;;3.67;2.13;;;;;;;17.08;64.79;100214.03;4931011;28;20113;-85
2023/09/15 02:48:18;;;;;;;3.90;2.13;;;;;;;17.05;64.82;100214.38;4947921;28;20134;-86
2023/09/15 02:50:46;;;;;;;2.90;2.03;;;;;;;17.07;64.73;100215.03;4913685;28;20074;-86
2023/09/15 02:53:13;;;;;;;4.22;2.00;;;;;;;17.07;64.56;100210.53;4929905;28;20490;-85
2023/09/15 02:55:40;;;;;;;4.10;2.22;;;;;;;17.07;64.78;100210.53;4930793;28;20153;-86
2023/09/15 02:58:08;;;;;;;5.25;2.22;;;;;;;17.06;64.57;100211.50;4915048;28;20055;-86
2023/09/15 03:00:35;;;;;;;4.78;2.00;;;;;;;17.04;64.88;100204.63;4947114;28;20362;-87
2023/09/15 03:03:17;;;;;;;5.40;2.20;;;;;;;16.98;64.94;100208.84;4930254;28;20050;-85
2023/09/15 03:05:44;;;;;;;4.80;2.03;;;;;;;17.05;64.73;100204.47;4930119;28;20475;-85
2023/09/15 03:08:11;;;;;;;4.25;1.90;;;;;;;17.03;64.84;100211.03;4910681;28;20071;-85
2023/09/15 03:10:40;;;;;;;6.22;2.22;;;;;;;17.03;64.84;100214.53;4942901;28;20407;-85
2023/09/15 03:13:06;;;;;;;3.28;1.85;;;;;;;17.04;64.58;100201.97;4929353;28;20511;-84
2023/09/15 03:15:34;;;;;;;2.95;1.63;;;;;;;17.03;64.84;100201.13;4950417;28;20164;-85
2023/09/15 03:18:01;;;;;;;5.07;1.90;;;;;;;17.03;64.58;100201.13;4924650;28;20042;-84
2023/09/15 03:20:29;;;;;;;4.03;2.13;;;;;;;17.01;64.70;100200.44;4945375;28;20077;-85
2023/09/15 03:22:59;;;;;;;4.63;2.10;;;;;;;17.01;64.77;100200.44;4923099;28;20051;-85
2023/09/15 03:25:26;;;;;;;5.20;2.15;;;;;;;16.98;64.96;100199.97;4942708;28;20043;-85
2023/09/15 03:27:53;;;;;;;4.93;2.22;;;;;;;16.98;64.63;100197.28;4928505;28;20047;-85
2023/09/15 03:30:20;;;;;;;3.40;2.10;;;;;;;16.99;64.80;100199.78;4916187;28;20058;-86
2023/09/15 03:32:47;;;;;;;4.60;2.10;;;;;;;16.96;64.41;100196.59;4942845;28;20042;-85
2023/09/15 03:35:14;;;;;;;4.50;3.03;;;;;;;16.97;64.65;100198.25;4928224;28;20133;-86
2023/09/15 03:37:41;;;;;;;4.93;2.10;;;;;;;16.96;64.64;100199.28;4930903;28;20053;-85
2023/09/15 03:40:09;;;;;;;2.53;1.90;;;;;;;16.89;64.55;100199.09;4936977;28;20399;-86
2023/09/15 03:42:36;;;;;;;5.22;2.28;;;;;;;16.84;64.65;100196.09;4942532;28;20047;-85
2023/09/15 03:45:07;;;;;;;4.43;1.88;;;;;;;16.92;64.73;100198.78;4958232;28;20058;-86
2023/09/15 03:47:34;;;;;;;4.60;2.25;;;;;;;16.90;64.91;100201.63;4918947;28;20070;-85
2023/09/15 03:50:02;;;;;;;3.22;2.00;;;;;;;16.95;64.98;100198.47;4933795;28;20051;-85
2023/09/15 03:52:32;;;;;;;5.30;2.30;;;;;;;16.91;65.08;100197.09;4921414;28;20050;-85
2023/09/15 03:55:01;;;;;;;3.05;2.47;;;;;;;16.92;65.02;100204.16;4949753;28;20053;-85
2023/09/15 03:57:30;;;;;;;7.68;2.30;;;;;;;16.92;65.11;100202.31;4933700;28;20051;-86
2023/09/15 03:59:57;;;;;;;5.05;2.28;;;;;;;16.93;65.40;100193.25;4938680;28;20057;-85
2023/09/15 04:02:24;;;;;;;4.35;2.05;;;;;;;16.92;65.01;100188.91;4895820;28;20881;-85
2023/09/15 04:04:51;;;;;;;4.38;2.47;;;;;;;16.96;65.05;100193.91;4910180;28;20486;-85
2023/09/15 04:07:19;;;;;;;4.35;2.33;;;;;;;16.91;65.25;100195.25;4957851;28;20406;-85
2023/09/15 04:09:46;;;;;;;2.55;2.05;;;;;;;16.91;65.13;100192.56;4931481;28;20527;-85
2023/09/15 04:12:13;;;;;;;4.47;2.45;;;;;;;16.88;65.51;100195.59;4941813;28;20047;-85
2023/09/15 04:14:40;;;;;;;4.18;2.25;;;;;;;16.85;65.65;100197.78;4941950;28;20499;-85
2023/09/15 04:17:09;;;;;;;4.40;2.70;;;;;;;16.82;65.51;100193.59;4946562;28;20452;-85
2023/09/15 04:19:36;;;;;;;4.20;2.20;;;;;;;16.80;65.39;100187.56;4928599;28;20047;-85
2023/09/15 04:22:03;;;;;;;5.10;2.40;;;;;;;16.78;65.56;100192.25;4955748;28;20077;-84
2023/09/15 04:24:30;;;;;;;4.80;2.47;;;;;;;16.77;65.71;100190.53;4947589;28;20406;-85
2023/09/15 04:26:57;;;;;;;5.75;2.50;;;;;;;16.79;65.58;100198.44;4937430;28;20106;-83
2023/09/15 04:29:24;;;;;;;3.08;2.05;;;;;;;16.75;65.75;100194.41;4924728;28;20082;-83
2023/09/15 04:31:51;;;;;;;6.75;2.65;;;;;;;16.76;65.78;100196.06;4937985;28;20074;-83
2023/09/15 04:34:18;;;;;;;4.72;2.47;;;;;;;16.74;65.89;100196.25;4961013;28;20046;-83
2023/09/15 04:36:45;;;;;;;3.25;2.30;;;;;;;16.71;65.96;100194.75;4959512;28;20125;-83
2023/09/15 04:39:13;;;;;;;5.30;2.63;;;;;;;16.73;66.08;100196.41;4925774;28;20043;-83
2023/09/15 04:41:40;;;;;;;4.85;2.33;;;;;;;16.72;66.09;100198.25;4938447;28;20047;-83
2023/09/15 04:44:07;;;;;;;7.65;2.90;;;;;;;16.73;65.84;100199.91;4932414;28;20505;-83
2023/09/15 04:46:34;;;;;;;4.10;2.20;;;;;;;16.72;66.27;100206.28;4921971;28;20106;-83
2023/09/15 04:49:02;;;;;;;4.00;2.63;;;;;;;16.72;66.27;100195.56;4938293;28;20411;-83
2023/09/15 04:51:29;;;;;;;5.38;2.53;;;;;;;16.73;66.23;100199.91;4923017;28;20391;-83
2023/09/15 04:53:56;;;;;;;3.63;2.70;;;;;;;16.70;66.28;100203.78;4962507;28;20062;-83
2023/09/15 04:56:25;;;;;;;3.88;2.65;;;;;;;16.70;66.45;100202.94;4946207;28;20586;-83
2023/09/15 04:58:52;;;;;;;4.45;2.63;;;;;;;16.73;66.25;100209.81;4953119;28;20051;-83
2023/09/15 05:01:19;;;;;;;5.05;2.50;;;;;;;16.69;66.52;100202.09;4967843;28;20053;-83
2023/09/15 05:03:46;;;;;;;5.75;3.35;;;;;;;16.73;66.46;100201.75;4960164;28;20050;-82
2023/09/15 05:06:14;;;;;;;6.68;3.22;;;;;;;16.71;66.82;100202.78;4932381;28;20102;-83
2023/09/15 05:08:41;;;;;;;6.80;2.80;;;;;;;16.74;66.74;100206.13;4943157;28;20046;-82
2023/09/15 05:11:08;;;;;;;4.43;2.92;;;;;;;16.71;66.65;100196.56;4975578;28;20051;-83
2023/09/15 05:13:35;;;;;;;4.35;2.70;;;;;;;16.70;66.70;100195.72;4959670;28;20043;-82
2023/09/15 05:16:03;;;;;;;7.00;3.45;;;;;;;16.71;66.91;100197.41;4963904;28;20043;-83
2023/09/15 05:18:30;;;;;;;5.20;3.38;;;;;;;16.71;66.98;100207.28;4951831;28;20502;-82
2023/09/15 05:20:57;;;;;;;5.63;2.72;;;;;;;16.68;67.25;100207.63;4949982;28;20051;-83
2023/09/15 05:23:25;;;;;;;3.83;2.80;;;;;;;16.69;67.18;100206.63;4963830;28;20061;-83
2023/09/15 05:25:53;;;;;;;5.05;2.95;;;;;;;16.66;67.58;100213.16;4935197;28;20380;-83
2023/09/15 05:28:22;;;;;;;7.15;3.08;;;;;;;16.63;67.61;100200.06;4951641;28;20127;-82
2023/09/15 05:30:49;;;;;;;7.80;2.95;;;;;;;16.64;67.64;100204.44;4958238;28;20117;-82
2023/09/15 05:33:17;;;;;;;10.55;4.93;;;;;;;16.59;67.67;100200.56;4944819;28;20066;-82
2023/09/15 05:35:45;;;;;;;8.75;4.70;;;;;;;16.63;67.58;100204.59;4947491;28;20039;-83
2023/09/15 05:38:12;;;;;;;6.50;4.07;;;;;;;16.63;67.46;100209.97;4947453;28;20069;-82
2023/09/15 05:40:38;;;;;;;6.45;4.20;;;;;;;16.59;67.80;100208.59;4948400;28;20050;-82
2023/09/15 05:43:08;;;;;;;8.30;4.15;;;;;;;16.58;67.79;100213.13;4955522;28;20101;-83
2023/09/15 05:45:38;;;;;;;8.43;5.38;;;;;;;16.54;67.84;100214.50;4944559;28;20058;-83
2023/09/15 05:48:05;;;;;;;6.40;4.47;;;;;;;16.52;67.77;100216.50;4943479;28;20413;-83
2023/09/15 05:50:32;;;;;;;8.98;4.65;;;;;;;16.52;67.81;100207.63;4930633;28;20053;-83
2023/09/15 05:52:59;;;;;;;8.90;4.85;;;;;;;16.54;67.92;100206.44;4961089;28;20042;-83
2023/09/15 05:55:25;;;;;;;8.82;4.68;;;;;;;16.53;67.81;100204.75;4966366;28;20046;-83
2023/09/15 05:57:52;;;;;;;9.65;3.97;;;;;;;16.60;67.61;100205.78;4938033;28;20051;-83
2023/09/15 06:00:19;;;;;;;6.30;4.13;;;;;;;16.54;67.55;100206.44;4971876;28;20038;-83
2023/09/15 06:02:46;;;;;;;13.77;5.65;;;;;;;16.55;67.99;100196.56;4941329;28;20042;-82
2023/09/15 06:05:13;;;;;;;8.27;4.63;;;;;;;16.59;68.23;100201.44;4965104;28;20066;-83
2023/09/15 06:07:40;;;;;;;8.88;4.53;;;;;;;16.59;68.15;100200.56;4945612;28;20058;-83
2023/09/15 06:10:07;;;;;;;6.97;4.78;;;;;;;16.56;68.22;100201.72;4915452;28;20862;-83
2023/09/15 06:12:34;;;;;;;8.93;4.88;;;;;;;16.60;67.93;100197.72;4973829;28;20507;-82
2023/09/15 06:15:01;;;;;;;10.00;4.60;;;;;;;16.61;67.86;100209.28;4958912;28;20039;-83
2023/09/15 06:17:27;;;;;;;9.68;4.63;;;;;;;16.49;68.37;100209.63;4958803;28;20043;-83
2023/09/15 06:19:54;;;;;;;8.82;5.18;;;;;;;16.56;68.34;100207.09;4964483;28;20873;-83
2023/09/15 06:22:22;;;;;;;9.32;4.88;;;;;;;16.61;68.42;100209.28;4939460;28;20909;-83
2023/09/15 06:24:49;;;;;;;9.70;4.90;;;;;;;16.67;68.42;100211.31;4932465;28;20407;-83
2023/09/15 06:27:16;;;;;;;8.07;5.22;;;;;;;16.71;68.28;100223.38;4946019;28;20043;-83
2023/09/15 06:29:43;;;;;;;9.02;5.78;;;;;;;16.62;68.70;100216.34;4934532;28;20043;-83
2023/09/15 06:32:12;;;;;;;13.45;5.80;;;;;;;16.67;68.62;100214.00;4964295;28;20122;-83
2023/09/15 06:34:38;;;;;;;8.73;5.07;;;;;;;16.69;68.47;100217.38;4948912;28;20129;-83
2023/09/15 06:37:06;;;;;;;9.65;5.50;;;;;;;16.68;69.50;100218.34;4952508;28;20046;-83
2023/09/15 06:39:35;;;;;;;12.50;5.90;;;;;;;16.74;69.03;100216.84;4935042;28;20054;-83
2023/09/15 06:42:05;;;;;;;11.73;5.60;;;;;;;16.71;69.36;100224.25;4974834;28;20047;-83
2023/09/15 06:44:36;;;;;;;9.95;6.35;;;;;;;16.66;69.42;100209.63;4973755;28;20054;-83
2023/09/15 06:47:03;;;;;;;9.25;5.95;;;;;;;16.69;69.04;100209.31;4951683;28;20053;-83
2023/09/15 06:49:32;;;;;;;8.18;5.65;;;;;;;16.76;69.47;100209.47;4952888;28;20118;-83
2023/09/15 06:51:59;;;;;;;7.95;5.30;;;;;;;16.77;69.66;100209.31;4949827;28;20129;-83
2023/09/15 06:54:29;;;;;;;8.93;5.78;;;;;;;16.77;69.43;100201.28;4933340;28;20047;-83
2023/09/15 06:56:56;;;;;;;10.35;6.13;;;;;;;16.78;69.66;100204.81;4935747;28;20166;-83
2023/09/15 06:59:22;;;;;;;8.27;5.50;;;;;;;16.81;69.56;100201.78;4943810;28;20506;-83
2023/09/15 07:01:49;;;;;;;11.70;5.90;;;;;;;16.85;69.52;100205.84;4944182;28;20070;-83
2023/09/15 07:04:17;;;;;;;12.75;6.57;;;;;;;16.85;69.70;100205.84;4957144;28;20057;-83
2023/09/15 07:06:44;;;;;;;9.98;6.07;;;;;;;16.84;69.85;100207.69;4942689;28;20047;-83
2023/09/15 07:09:11;;;;;;;8.40;5.70;;;;;;;16.91;69.98;100202.47;4971804;28;20051;-83
2023/09/15 07:11:38;;;;;;;9.18;5.95;;;;;;;16.95;70.26;100201.13;4974177;28;20043;-83
2023/09/15 07:14:04;;;;;;;10.05;5.80;;;;;;;16.94;70.26;100196.75;4948690;28;20070;-83
2023/09/15 07:16:31;;;;;;;8.57;5.60;;;;;;;16.93;70.32;100198.59;4912229;28;20047;-84
2023/09/15 07:18:59;;;;;;;9.38;6.07;;;;;;;16.92;70.61;100202.31;4955235;28;20074;-83
2023/09/15 07:21:25;;;;;;;10.02;6.30;;;;;;;16.95;70.59;100200.31;4932489;28;20524;-83
2023/09/15 07:23:53;;;;;;;11.27;6.30;;;;;;;16.97;70.93;100199.13;4962475;28;20050;-83
2023/09/15 07:26:21;;;;;;;12.23;6.28;;;;;;;16.99;70.77;100194.41;4933167;28;20458;-83
2023/09/15 07:28:48;;;;;;;9.25;5.53;;;;;;;17.03;71.33;100194.94;4940432;28;20115;-83
2023/09/15 07:31:15;;;;;;;10.35;6.03;;;;;;;17.03;71.09;100187.72;4958137;28;20774;-83
2023/09/15 07:33:43;;;;;;;10.52;5.90;;;;;;;17.06;71.46;100186.53;4934647;28;20046;-83
2023/09/15 07:36:10;;;;;;;12.60;6.10;;;;;;;17.10;70.90;100183.34;4936895;28;20109;-83
2023/09/15 07:38:37;;;;;;;8.73;6.22;;;;;;;17.13;71.29;100185.69;4941288;28;20448;-83
2023/09/15 07:41:04;;;;;;;8.70;6.10;;;;;;;17.20;71.27;100185.00;4928548;28;20050;-83
2023/09/15 07:43:31;;;;;;;11.15;5.85;;;;;;;17.23;71.54;100187.38;4960917;28;20078;-83
2023/09/15 07:45:57;;;;;;;7.70;5.22;;;;;;;17.23;71.12;100184.69;4931579;28;20467;-83
2023/09/15 07:48:25;;;;;;;7.93;5.80;;;;;;;17.25;71.18;100180.81;4930773;28;20123;-82
2023/09/15 07:50:51;;;;;;;10.52;6.43;;;;;;;17.28;71.14;100187.69;4955322;28;20046;-83
2023/09/15 07:53:21;;;;;;;9.38;6.13;;;;;;;17.29;70.80;100187.50;4954719;28;20046;-83
2023/09/15 07:55:48;;;;;;;7.35;5.63;;;;;;;17.32;71.15;100186.31;4973687;28;20429;-83
2023/09/15 07:58:14;;;;;;;8.25;5.68;;;;;;;17.36;71.41;100188.50;4952847;28;20066;-84
2023/09/15 08:00:41;;;;;;;9.98;5.90;;;;;;;17.43;71.37;100187.81;4955554;28;20042;-83
2023/09/15 08:03:08;;;;;;;9.68;6.20;;;;;;;17.45;71.26;100186.63;4962121;28;20046;-83
2023/09/15 08:05:35;;;;;;;8.70;5.75;;;;;;;17.49;71.44;100176.41;4956202;28;20473;-83
2023/09/15 08:08:02;;;;;;;10.07;5.45;;;;;;;17.53;71.37;100170.50;4949549;28;20047;-83
2023/09/15 08:10:29;;;;;;;9.82;6.25;;;;;;;17.54;71.38;100171.34;4959618;28;20454;-83
2023/09/15 08:12:56;;;;;;;10.07;6.28;;;;;;;17.57;71.42;100171.00;4922768;28;20062;-84
2023/09/15 08:15:23;;;;;;;8.88;5.57;;;;;;;17.61;71.23;100176.88;4972599;28;20129;-83
2023/09/15 08:17:50;;;;;;;8.27;5.60;;;;;;;17.63;71.35;100169.47;4959169;28;20553;-83
2023/09/15 08:20:17;;;;;;;9.85;6.00;;;;;;;17.67;71.71;100171.63;4952334;28;20047;-83
2023/09/15 08:22:44;;;;;;;9.88;5.97;;;;;;;17.68;71.60;100165.25;4942367;28;20067;-83
2023/09/15 08:25:11;;;;;;;9.30;5.20;;;;;;;17.70;71.69;100162.38;4949118;28;20138;-83
2023/09/15 08:27:38;;;;;;;9.70;5.78;;;;;;;17.76;71.86;100157.16;4940291;28;20071;-83
2023/09/15 08:30:08;;;;;;;11.50;4.93;;;;;;;17.79;72.21;100159.53;4953723;28;20043;-84
2023/09/15 08:32:35;;;;;;;8.85;5.13;;;;;;;17.78;72.11;100159.66;4930333;28;20509;-83
2023/09/15 08:35:03;;;;;;;8.52;5.20;;;;;;;17.82;71.94;100154.81;4936117;28;20510;-83
2023/09/15 08:37:31;;;;;;;7.82;5.40;;;;;;;17.85;71.96;100149.09;4932579;28;20038;-84
2023/09/15 08:39:58;;;;;;;7.35;5.20;;;;;;;17.90;71.97;100149.41;4931386;28;20766;-84
2023/09/15 08:42:29;;;;;;;8.40;5.38;;;;;;;17.94;72.56;100143.50;4959091;28;20054;-83
2023/09/15 08:44:57;;;;;;;7.53;5.53;;;;;;;17.97;72.57;100140.47;4935025;28;20085;-83
2023/09/15 08:47:27;;;;;;;8.15;5.65;;;;;;;18.01;72.59;100146.31;4945125;28;20063;-84
2023/09/15 08:49:54;;;;;;;8.93;5.35;;;;;;;18.04;72.30;100142.44;4933524;28;20122;-84
2023/09/15 08:52:21;;;;;;;7.28;4.85;;;;;;;18.09;72.34;100138.22;4931010;28;20122;-84
2023/09/15 08:54:51;;;;;;;8.75;5.47;;;;;;;18.11;72.44;100146.09;4941955;28;20045;-83
2023/09/15 08:57:19;;;;;;;11.35;5.80;;;;;;;18.15;72.53;100145.56;4970253;28;20042;-84
2023/09/15 08:59:46;;;;;;;7.60;5.65;;;;;;;18.16;72.95;100138.34;4930045;28;20046;-84
2023/09/15 09:02:14;;;;;;;8.35;5.78;;;;;;;18.22;72.49;100146.53;4948129;28;20035;-84
2023/09/15 09:04:41;;;;;;;6.80;5.20;;;;;;;18.25;72.37;100134.59;4926280;28;20946;-83
2023/09/15 09:07:08;;;;;;;8.68;5.43;;;;;;;18.29;72.33;100140.44;4929498;28;20516;-84
2023/09/15 09:09:36;;;;;;;8.07;5.20;;;;;;;18.32;72.58;100134.69;4943075;28;20046;-83
2023/09/15 09:12:03;;;;;;;10.35;5.78;;;;;;;18.35;73.10;100124.44;4947480;28;20054;-84
2023/09/15 09:14:30;;;;;;;8.63;6.03;;;;;;;18.40;73.43;100126.59;4960011;28;20495;-83
2023/09/15 09:16:58;;;;;;;7.35;5.15;;;;;;;18.46;73.70;100123.19;4947042;28;20047;-85
2023/09/15 09:19:35;;;;;;;6.32;5.05;;;;;;;18.47;73.80;100132.06;4948976;28;20101;-84
2023/09/15 09:22:02;;;;;;;6.90;5.00;;;;;;;18.53;73.68;100124.13;4922566;28;20121;-85
2023/09/15 09:24:29;;;;;;;7.13;5.65;;;;;;;18.58;73.72;100119.06;4929490;28;20051;-85
2023/09/15 09:26:56;;;;;;;8.73;5.80;;;;;;;18.61;73.21;100109.78;4945197;28;20110;-84
2023/09/15 09:29:28;;;;;;;7.50;4.72;;;;;;;18.64;73.60;100125.56;4935772;28;20561;-84
2023/09/15 09:31:55;;;;;;;7.55;5.45;;;;;;;18.67;73.08;100119.81;4941450;28;20039;-84
2023/09/15 09:34:22;;;;;;;5.53;4.45;;;;;;;18.72;73.47;100108.50;4952627;28;21635;-85
2023/09/15 09:37:09;;;;;;;5.05;4.55;;;;;;;18.78;73.37;100114.03;4951150;28;20042;-84
2023/09/15 09:39:36;;;;;;;6.72;4.97;;;;;;;18.83;73.43;100116.19;4958445;28;20039;-85
2023/09/15 09:42:03;;;;;;;7.25;4.30;;;;;;;18.83;73.45;100114.31;4959787;28;20449;-85
2023/09/15 09:44:34;;;;;;;5.78;4.55;;;;;;;18.87;73.88;100112.09;4937710;28;20043;-84
2023/09/15 09:47:01;;;;;;;4.72;4.03;;;;;;;18.93;73.31;100106.00;4923441;28;20054;-83
2023/09/15 09:49:28;;;;;;;6.18;4.43;;;;;;;18.96;72.74;100104.78;4950177;28;20050;-84
2023/09/15 09:51:56;;;;;;;5.38;4.10;;;;;;;18.96;72.59;100097.56;4935986;28;20043;-84
2023/09/15 09:54:28;;;;;;;7.05;4.78;;;;;;;19.03;72.94;100101.19;4940442;28;20558;-84
2023/09/15 09:56:55;;;;;;;5.20;4.25;;;;;;;19.04;73.36;100100.16;4929802;28;20127;-85
2023/09/15 09:59:22;;;;;;;4.78;4.22;;;;;;;19.09;72.22;100089.66;4950155;28;20039;-83
2023/09/15 10:01:49;;;;;;;4.70;4.18;;;;;;;19.11;72.02;100092.19;4945235;28;20139;-84
2023/09/15 10:04:16;;;;;;;4.90;4.15;;;;;;;19.13;72.10;100089.28;4948516;28;20106;-84
2023/09/15 10:06:44;;;;;;;6.07;4.03;;;;;;;19.14;71.97;100089.13;4949222;28;20046;-84
2023/09/15 10:09:13;;;;;;;4.35;3.55;;;;;;;19.17;71.93;100087.91;4933570;28;20402;-84
2023/09/15 10:11:41;;;;;;;5.28;3.78;;;;;;;19.22;71.50;100082.81;4946818;28;20058;-84
2023/09/15 10:14:08;;;;;;;5.30;3.35;;;;;;;19.24;71.52;100080.78;4949136;28;20208;-84
2023/09/15 10:16:35;;;;;;;4.88;3.78;;;;;;;19.30;70.76;100088.91;4949758;28;20047;-83
2023/09/15 10:19:03;;;;;;;4.38;3.42;;;;;;;19.34;69.83;100080.50;4961962;28;20406;-84
2023/09/15 10:21:33;;;;;;;5.00;3.58;;;;;;;19.34;69.67;100075.09;4937218;28;20146;-84
2023/09/15 10:24:08;;;;;;;4.72;3.72;;;;;;;19.35;69.58;100074.06;4941553;28;20053;-84
2023/09/15 10:26:39;;;;;;;4.93;3.92;;;;;;;19.42;69.89;100069.63;4935817;28;20047;-83
2023/09/15 10:29:06;;;;;;;6.57;3.80;;;;;;;19.46;69.87;100066.38;4934191;28;20074;-84
2023/09/15 10:31:34;;;;;;;4.53;3.80;;;;;;;19.51;68.80;100063.94;4957902;28;20046;-84
2023/09/15 10:34:02;;;;;;;4.40;3.80;;;;;;;19.59;68.62;100064.84;4971407;28;20491;-85
2023/09/15 10:36:29;;;;;;;4.95;3.38;;;;;;;19.60;67.95;100053.06;4965373;28;20127;-84
2023/09/15 10:38:57;;;;;;;5.80;3.67;;;;;;;19.63;68.47;100056.19;4956005;28;20516;-84
2023/09/15 10:41:28;;;;;;;4.22;3.55;;;;;;;19.71;68.22;100049.88;4916119;28;20063;-84
2023/09/15 10:43:56;;;;;;;4.22;3.58;;;;;;;19.80;67.43;100047.94;4947257;28;20042;-84
2023/09/15 10:46:34;;;;;;;4.53;3.10;;;;;;;19.78;67.20;100044.59;4939410;28;20047;-84
2023/09/15 10:49:12;;;;;;;4.10;3.45;;;;;;;19.79;65.82;100041.69;4950609;28;20049;-84
2023/09/15 10:51:53;;;;;;;5.63;3.60;;;;;;;19.86;65.96;100047.97;4944168;28;20862;-84
2023/09/15 10:54:20;;;;;;;4.10;3.20;;;;;;;19.92;66.55;100032.91;4948471;28;20438;-84
2023/09/15 10:56:48;;;;;;;3.70;3.17;;;;;;;19.89;66.49;100022.50;4952684;28;20087;-84
2023/09/15 10:59:17;;;;;;;3.78;3.20;;;;;;;19.92;66.41;100020.28;4947756;28;20043;-84
2023/09/15 11:01:44;;;;;;;4.47;3.47;;;;;;;20.01;66.21;100023.66;4960751;28;20406;-85
2023/09/15 11:04:13;;;;;;;3.63;3.33;;;;;;;20.02;66.68;100019.94;4951145;28;20100;-84
2023/09/15 11:06:40;;;;;;;5.40;3.33;;;;;;;20.04;66.38;100020.59;4958960;28;20050;-84
2023/09/15 11:09:08;;;;;;;3.80;3.40;;;;;;;20.07;66.42;100027.44;4958304;28;20138;-84
2023/09/15 11:11:35;;;;;;;4.95;3.30;;;;;;;20.06;66.89;100020.41;4941936;28;20494;-84
2023/09/15 11:14:01;;;;;;;3.97;3.58;;;;;;;20.09;66.33;100028.09;4949192;28;20478;-84
2023/09/15 11:16:28;;;;;;;3.78;3.28;;;;;;;20.12;65.81;100016.94;4952433;28;20043;-84
2023/09/15 11:19:00;;;;;;;4.63;3.70;;;;;;;20.17;65.53;100012.66;4951772;28;20410;-85
2023/09/15 11:21:27;;;;;;;4.60;3.60;;;;;;;20.24;65.80;100009.97;4949117;28;20098;-85
2023/09/15 11:23:56;;;;;;;5.10;3.10;;;;;;;20.30;65.19;100019.16;4942898;28;20039;-84
2023/09/15 11:26:25;;;;;;;5.22;3.90;;;;;;;20.38;64.55;100011.78;4967587;28;20041;-84
2023/09/15 11:28:54;;;;;;;4.88;4.13;;;;;;;20.34;64.97;100009.66;4951935;28;20050;-84